Time;durP1;ratioP1;P1;durP2;ratioP2;P2;SDS_P1;SDS_P2;PMS_P1;PMS_P2;Temp;Humidity;BMP_temperature;BMP_pressure;BME280_temperature;BME280_humidity;BME280_pressure;Samples;Min_cycle;Max_cycle;Signal;HPM_P1;HPM_P2
2022/01/12 00:00:57;;;;;;;12.87;6.80;;;3.10;99.90;;;;;;4934897;29;20027;-91
2022/01/12 00:03:24;;;;;;;10.97;5.83;;;3.10;99.90;;;;;;4935030;29;20394;-91
2022/01/12 00:05:49;;;;;;;13.80;6.17;;;3.10;99.90;;;;;;4934777;29;20028;-90
2022/01/12 00:08:16;;;;;;;13.13;6.20;;;3.10;99.90;;;;;;4934514;29;20032;-91
2022/01/12 00:10:43;;;;;;;12.70;6.17;;;3.10;99.90;;;;;;4934871;29;20126;-91
2022/01/12 00:13:09;;;;;;;12.03;5.63;;;3.10;99.90;;;;;;4919169;29;20521;-91
2022/01/12 00:15:35;;;;;;;12.77;6.20;;;3.10;99.90;;;;;;4919180;29;20127;-91
2022/01/12 00:18:01;;;;;;;11.60;5.97;;;3.10;99.90;;;;;;4933973;29;20126;-90
2022/01/12 00:20:27;;;;;;;11.27;6.27;;;3.10;99.90;;;;;;4934460;29;20028;-91
2022/01/12 00:22:53;;;;;;;11.63;5.77;;;3.00;99.90;;;;;;4934221;29;20082;-91
2022/01/12 00:33:17;;;;;;;12.50;6.23;;;3.10;99.90;;;;;;4934363;29;20036;-90
2022/01/12 00:35:47;;;;;;;12.63;6.17;;;3.00;99.90;;;;;;4933970;29;20418;-90
2022/01/12 00:38:15;;;;;;;12.77;6.30;;;3.00;99.90;;;;;;4917933;29;20032;-90
2022/01/12 00:40:44;;;;;;;11.10;5.90;;;3.00;99.90;;;;;;4902620;29;20038;-91
2022/01/12 00:43:11;;;;;;;14.05;6.60;;;3.00;99.90;;;;;;4918266;29;20039;-91
2022/01/12 00:45:41;;;;;;;13.80;6.10;;;3.00;99.90;;;;;;4933881;29;20040;-90
2022/01/12 00:48:07;;;;;;;13.97;6.63;;;3.00;99.90;;;;;;4917927;29;20031;-91
2022/01/12 00:50:33;;;;;;;14.00;6.60;;;3.00;99.90;;;;;;4934150;29;20549;-90
2022/01/12 00:52:59;;;;;;;12.53;6.27;;;3.00;99.90;;;;;;4933597;29;20455;-91
2022/01/12 00:55:24;;;;;;;13.53;6.30;;;3.00;99.90;;;;;;4933975;29;20028;-90
2022/01/12 00:57:51;;;;;;;12.67;6.40;;;3.00;99.90;;;;;;4933599;29;20496;-91
2022/01/12 01:00:20;;;;;;;13.10;6.37;;;3.10;99.90;;;;;;4933825;29;20110;-90
2022/01/12 01:02:46;;;;;;;13.23;6.35;;;3.00;99.90;;;;;;4918113;29;20557;-91
2022/01/12 01:05:14;;;;;;;10.77;6.13;;;3.00;99.90;;;;;;4933632;29;20502;-91
2022/01/12 01:07:41;;;;;;;12.77;6.37;;;3.00;99.90;;;;;;4933583;29;20046;-91
2022/01/12 01:10:12;;;;;;;14.83;7.40;;;3.10;99.90;;;;;;4902300;29;20074;-90
2022/01/12 01:12:38;;;;;;;13.87;6.47;;;3.10;99.90;;;;;;4933871;29;20031;-91
2022/01/12 01:15:11;;;;;;;12.37;6.60;;;3.10;99.90;;;;;;4933764;29;20036;-90
2022/01/12 01:25:48;;;;;;;11.83;6.33;;;3.20;99.90;;;;;;4934952;29;20055;-91
2022/01/12 01:28:16;;;;;;;12.83;6.67;;;3.20;99.90;;;;;;4935785;29;20032;-91
2022/01/12 01:30:43;;;;;;;12.33;5.60;;;3.20;99.90;;;;;;4937382;29;20268;-91
2022/01/12 01:33:11;;;;;;;11.10;6.40;;;3.20;99.90;;;;;;4920724;29;20394;-91
2022/01/12 01:35:39;;;;;;;14.50;7.13;;;3.10;99.90;;;;;;4935475;29;20042;-91
2022/01/12 01:38:06;;;;;;;12.53;6.13;;;3.20;99.90;;;;;;4933046;29;20039;-91
2022/01/12 01:40:35;;;;;;;14.07;5.97;;;3.10;99.90;;;;;;4917650;29;20322;-90
2022/01/12 01:53:51;;;;;;;14.17;6.70;;;3.10;99.90;;;;;;4933544;29;20051;-91
2022/01/12 01:56:19;;;;;;;14.03;7.03;;;3.10;99.90;;;;;;4933394;29;20034;-91
2022/01/12 01:58:48;;;;;;;12.70;6.97;;;3.20;99.90;;;;;;4932813;29;20035;-91
2022/01/12 02:01:14;;;;;;;12.52;6.95;;;3.20;99.90;;;;;;4933281;29;20402;-90
2022/01/12 02:03:50;;;;;;;12.93;6.90;;;3.20;99.90;;;;;;4932242;29;20038;-91
2022/01/12 02:06:16;;;;;;;13.60;6.53;;;3.20;99.90;;;;;;4921076;29;20039;-91
2022/01/12 02:08:45;;;;;;;13.57;6.90;;;3.20;99.90;;;;;;4936452;29;20035;-91
2022/01/12 02:11:27;;;;;;;13.90;6.50;;;3.20;99.90;;;;;;4935809;29;20035;-91
2022/01/12 02:13:57;;;;;;;13.23;6.75;;;3.30;99.90;;;;;;4937143;29;20031;-91
2022/01/12 02:16:32;;;;;;;12.83;6.57;;;3.30;99.90;;;;;;4936834;29;20067;-89
2022/01/12 02:40:38;;;;;;;15.87;7.33;;;3.10;99.90;;;;;;4920369;29;20028;-91
2022/01/12 02:50:36;;;;;;;12.97;6.40;;;3.10;99.90;;;;;;4936706;29;20027;-90
2022/01/12 02:53:52;;;;;;;11.43;6.10;;;3.10;99.90;;;;;;4937581;29;20277;-91
2022/01/12 02:56:22;;;;;;;13.70;7.33;;;3.10;99.90;;;;;;4936402;29;20030;-90
2022/01/12 02:58:50;;;;;;;14.73;6.43;;;3.10;99.90;;;;;;4935603;29;20072;-90
2022/01/12 03:01:42;;;;;;;13.53;6.67;;;3.00;99.90;;;;;;4935672;29;20068;-90
2022/01/12 03:04:07;;;;;;;14.63;7.17;;;3.10;99.90;;;;;;4920191;29;20135;-91
2022/01/12 03:06:37;;;;;;;12.48;6.88;;;3.00;99.90;;;;;;4935787;29;20028;-91
2022/01/12 03:09:05;;;;;;;12.63;6.60;;;3.10;99.90;;;;;;4935366;29;20028;-91
2022/01/12 03:11:32;;;;;;;13.43;6.87;;;3.10;99.90;;;;;;4935705;29;20035;-91
2022/01/12 03:14:04;;;;;;;11.67;6.40;;;3.10;99.90;;;;;;4935088;29;20032;-91
2022/01/12 03:16:30;;;;;;;10.23;6.47;;;3.10;99.90;;;;;;4903882;29;20486;-91
2022/01/12 03:19:03;;;;;;;13.20;6.40;;;3.10;99.90;;;;;;4934949;29;20043;-91
2022/01/12 03:21:34;;;;;;;10.83;5.73;;;3.10;99.90;;;;;;4919422;29;20036;-91
2022/01/12 03:24:00;;;;;;;14.52;6.03;;;3.10;99.90;;;;;;4935675;29;20498;-91
2022/01/12 03:26:29;;;;;;;13.90;6.37;;;3.10;99.90;;;;;;4935589;29;20044;-91
2022/01/12 03:28:56;;;;;;;12.55;6.78;;;3.10;99.90;;;;;;4935029;29;20126;-90
2022/01/12 03:31:31;;;;;;;14.37;6.60;;;3.10;99.90;;;;;;4935259;29;20035;-91
2022/01/12 03:34:06;;;;;;;13.47;7.00;;;3.10;99.90;;;;;;4935559;29;20028;-91
2022/01/12 03:39:07;;;;;;;14.03;6.90;;;3.10;99.90;;;;;;4935107;29;20039;-91
2022/01/12 03:41:35;;;;;;;12.52;6.45;;;3.10;99.90;;;;;;4935173;29;20020;-91
2022/01/12 03:44:06;;;;;;;12.30;7.10;;;3.20;99.90;;;;;;4935305;29;20039;-91
2022/01/12 03:46:45;;;;;;;18.17;9.93;;;3.20;99.90;;;;;;4935322;29;20023;-91
2022/01/12 03:49:13;;;;;;;14.77;7.43;;;3.20;99.90;;;;;;4935109;29;20030;-90
2022/01/12 03:51:39;;;;;;;13.60;6.77;;;3.20;99.90;;;;;;4935479;29;20020;-90
2022/01/12 03:54:07;;;;;;;12.33;6.63;;;3.20;99.90;;;;;;4935488;29;20051;-91
2022/01/12 03:56:33;;;;;;;13.27;7.47;;;3.20;99.90;;;;;;4920770;29;20071;-90
2022/01/12 03:59:00;;;;;;;17.07;7.67;;;3.20;99.90;;;;;;4921187;29;20430;-90
2022/01/12 04:01:26;;;;;;;14.70;8.30;;;3.20;99.90;;;;;;4937884;29;20107;-90
2022/01/12 04:04:04;;;;;;;15.33;7.60;;;3.20;99.90;;;;;;4937281;29;20027;-91
2022/01/12 04:09:14;;;;;;;14.90;7.17;;;3.30;99.90;;;;;;4934482;29;20068;-91
2022/01/12 04:11:40;;;;;;;13.50;6.80;;;3.20;99.90;;;;;;4934630;29;20494;-90
2022/01/12 04:14:07;;;;;;;14.00;7.00;;;3.30;99.90;;;;;;4934709;29;20028;-90
2022/01/12 04:16:33;;;;;;;13.93;7.00;;;3.20;99.90;;;;;;4934623;29;20019;-91
2022/01/12 04:18:59;;;;;;;13.73;7.13;;;3.20;99.90;;;;;;4934053;29;20035;-92
2022/01/12 04:21:29;;;;;;;15.03;8.20;;;3.20;99.90;;;;;;4934672;29;20054;-90
2022/01/12 04:23:57;;;;;;;14.70;7.37;;;3.20;99.90;;;;;;4934751;29;20487;-91
2022/01/12 04:26:23;;;;;;;15.83;8.50;;;3.30;99.90;;;;;;4934146;29;20030;-90
2022/01/12 04:28:50;;;;;;;15.07;7.47;;;3.20;99.90;;;;;;4933753;29;20039;-91
2022/01/12 04:31:16;;;;;;;13.77;6.83;;;3.30;99.90;;;;;;4934518;29;20422;-91
2022/01/12 04:33:45;;;;;;;14.33;7.57;;;3.20;99.90;;;;;;4934195;29;20086;-90
2022/01/12 04:36:12;;;;;;;15.93;7.17;;;3.20;99.90;;;;;;4934353;29;20037;-90
2022/01/12 04:38:40;;;;;;;13.77;6.93;;;3.20;99.90;;;;;;4933953;29;20171;-91
2022/01/12 04:41:08;;;;;;;12.33;7.07;;;3.30;99.90;;;;;;4918466;29;20036;-91
2022/01/12 04:43:36;;;;;;;11.83;7.33;;;3.20;99.90;;;;;;4934180;29;20028;-90
2022/01/12 04:48:50;;;;;;;15.25;7.22;;;3.30;99.90;;;;;;4917875;29;20031;-91
2022/01/12 04:51:17;;;;;;;13.03;6.77;;;3.30;99.90;;;;;;4933977;29;20055;-90
2022/01/12 04:53:43;;;;;;;12.33;6.90;;;3.30;99.90;;;;;;4934007;29;20032;-90
2022/01/12 04:56:08;;;;;;;15.13;7.40;;;3.30;99.90;;;;;;4934593;29;20028;-91
2022/01/12 04:58:34;;;;;;;13.97;6.97;;;3.30;99.90;;;;;;4933576;29;20070;-91
2022/01/12 05:01:08;;;;;;;14.00;7.13;;;3.30;99.90;;;;;;4933865;29;20130;-91
2022/01/12 05:06:46;;;;;;;15.40;7.23;;;3.40;99.90;;;;;;4933952;29;20221;-91
2022/01/12 05:09:46;;;;;;;16.57;7.23;;;3.40;99.90;;;;;;4933637;29;20039;-91
2022/01/12 05:15:20;;;;;;;15.77;7.30;;;3.40;99.90;;;;;;4894719;29;20518;-91
2022/01/12 05:17:46;;;;;;;13.20;7.07;;;3.40;99.90;;;;;;4911300;29;20047;-90
2022/01/12 05:20:11;;;;;;;16.23;7.50;;;3.40;99.90;;;;;;4902064;29;20063;-91
2022/01/12 05:22:37;;;;;;;13.73;7.60;;;3.40;99.90;;;;;;4933456;29;20122;-91
2022/01/12 05:25:03;;;;;;;15.97;8.17;;;3.40;99.90;;;;;;4933498;29;20036;-91
2022/01/12 05:27:30;;;;;;;16.33;7.50;;;3.30;99.90;;;;;;4933003;29;20039;-91
2022/01/12 05:29:56;;;;;;;17.20;8.03;;;3.30;99.90;;;;;;4933529;29;20031;-91
2022/01/12 05:32:24;;;;;;;13.13;7.03;;;3.40;99.90;;;;;;4933532;29;20028;-91
2022/01/12 05:37:37;;;;;;;13.00;7.47;;;3.30;99.90;;;;;;4952578;29;20043;-88
2022/01/12 08:45:11;;;;;;;31.17;12.77;;;3.80;99.90;;;;;;6198332;22;1371373;-90
2022/01/12 08:47:37;;;;;;;37.17;13.30;;;3.80;99.90;;;;;;6201671;23;20012;-89
2022/01/12 08:50:04;;;;;;;38.60;15.00;;;3.80;99.90;;;;;;6201989;23;20004;-89
2022/01/12 08:52:30;;;;;;;41.60;14.77;;;3.80;99.90;;;;;;6226895;23;20012;-89
2022/01/12 08:54:57;;;;;;;38.20;14.90;;;3.80;99.90;;;;;;6201558;23;20007;-89
2022/01/12 08:57:23;;;;;;;42.83;16.00;;;3.80;99.90;;;;;;6201329;22;20008;-87
2022/01/12 08:59:49;;;;;;;48.30;16.07;;;3.80;99.90;;;;;;6281714;22;20011;-87
2022/01/12 09:02:15;;;;;;;45.07;17.13;;;3.80;99.90;;;;;;6282607;22;20035;-87
2022/01/12 09:04:44;;;;;;;45.33;15.97;;;3.80;99.90;;;;;;6283095;22;20303;-86
2022/01/12 09:07:10;;;;;;;46.88;15.57;;;3.80;99.90;;;;;;6256996;22;20036;-87
2022/01/12 09:09:37;;;;;;;37.70;15.00;;;3.80;99.90;;;;;;6281821;22;20010;-87
2022/01/12 09:12:04;;;;;;;43.60;16.47;;;3.70;99.90;;;;;;6282329;22;20008;-87
2022/01/12 09:14:31;;;;;;;43.70;16.07;;;3.70;99.90;;;;;;6282569;22;20047;-87
2022/01/12 09:16:58;;;;;;;40.73;15.40;;;3.70;99.90;;;;;;6257169;22;20007;-86
2022/01/12 09:19:25;;;;;;;36.53;15.00;;;3.70;99.90;;;;;;6281818;22;20319;-86
2022/01/12 09:21:51;;;;;;;40.03;15.63;;;3.70;99.90;;;;;;6281869;22;20015;-87
2022/01/12 09:24:17;;;;;;;39.57;15.23;;;3.70;99.90;;;;;;6282165;22;20014;-86
2022/01/12 09:26:43;;;;;;;40.53;15.67;;;3.80;99.90;;;;;;6282276;22;20007;-86
2022/01/12 09:29:09;;;;;;;37.87;14.53;;;3.70;99.90;;;;;;6256277;22;20015;-86
2022/01/12 09:31:35;;;;;;;41.23;15.47;;;3.80;99.90;;;;;;6256584;22;20008;-86
2022/01/12 09:34:03;;;;;;;41.73;15.53;;;3.80;99.90;;;;;;6256865;22;20061;-86
2022/01/12 09:36:29;;;;;;;41.27;16.10;;;3.80;99.90;;;;;;6282353;22;20457;-86
2022/01/12 09:38:55;;;;;;;40.33;15.93;;;3.80;99.90;;;;;;6256002;22;20090;-87
2022/01/12 09:41:24;;;;;;;44.23;15.87;;;3.80;99.90;;;;;;6282115;22;20034;-86
2022/01/12 09:43:53;;;;;;;48.73;17.27;;;3.80;99.90;;;;;;6256444;22;20007;-85
2022/01/12 09:46:23;;;;;;;39.77;15.90;;;3.80;99.90;;;;;;6275397;22;20089;-86
2022/01/12 09:48:48;;;;;;;;;;;3.90;99.90;;;;;;6275277;22;20003;-86
2022/01/12 09:51:14;;;;;;;37.47;14.60;;;3.90;99.90;;;;;;6275428;22;20280;-87
2022/01/12 09:53:41;;;;;;;40.53;15.83;;;3.90;99.90;;;;;;6275297;22;20036;-87
2022/01/12 09:56:28;;;;;;;43.67;16.10;;;4.00;99.90;;;;;;6249848;22;20106;-87
2022/01/12 09:59:00;;;;;;;47.23;17.17;;;4.00;99.90;;;;;;6251068;22;20095;-87
2022/01/12 10:01:39;;;;;;;48.47;18.40;;;3.90;99.90;;;;;;6276359;22;20098;-87
2022/01/12 10:04:23;;;;;;;51.53;18.23;;;3.90;99.90;;;;;;6251619;22;20008;-87
2022/01/12 10:06:57;;;;;;;50.80;18.70;;;3.90;99.90;;;;;;6279052;22;20008;-87
2022/01/12 10:09:35;;;;;;;49.03;18.03;;;4.00;99.90;;;;;;6277810;22;20094;-88
2022/01/12 10:12:05;;;;;;;48.43;18.53;;;4.00;99.90;;;;;;6249671;22;20035;-88
2022/01/12 10:15:02;;;;;;;52.07;18.70;;;4.00;99.90;;;;;;6275053;22;20022;-87
2022/01/12 10:17:36;;;;;;;43.73;17.77;;;4.10;99.90;;;;;;6224490;22;20011;-88
2022/01/12 10:20:09;;;;;;;42.40;16.13;;;4.10;99.90;;;;;;6249523;22;20434;-87
2022/01/12 10:22:36;;;;;;;42.43;17.27;;;4.10;99.90;;;;;;6276952;22;20006;-88
2022/01/12 10:25:14;;;;;;;43.03;16.80;;;4.10;99.90;;;;;;6275247;22;20000;-87
2022/01/12 10:27:40;;;;;;;41.50;17.43;;;4.10;99.90;;;;;;6274828;22;20004;-87
2022/01/12 10:30:06;;;;;;;42.73;17.70;;;4.10;99.90;;;;;;6249499;22;20084;-87
2022/01/12 10:32:32;;;;;;;45.77;17.13;;;4.10;99.90;;;;;;6274922;22;20022;-88
2022/01/12 10:35:00;;;;;;;42.83;17.43;;;4.10;99.90;;;;;;6275102;22;20427;-88
2022/01/12 10:37:26;;;;;;;46.43;16.93;;;4.10;99.90;;;;;;6275162;22;20086;-88
2022/01/12 10:39:55;;;;;;;44.57;17.83;;;4.10;99.90;;;;;;6276991;22;20519;-88
2022/01/12 10:42:22;;;;;;;43.38;17.85;;;4.10;99.90;;;;;;6276415;22;20008;-88
2022/01/12 10:45:04;;;;;;;48.63;18.43;;;4.10;99.90;;;;;;6250383;22;20082;-88
2022/01/12 10:47:32;;;;;;;56.63;20.23;;;4.10;99.90;;;;;;6274878;22;20003;-89
2022/01/12 10:50:00;;;;;;;55.07;19.33;;;4.20;99.90;;;;;;6275012;22;20010;-89
2022/01/12 10:52:50;;;;;;;56.83;20.00;;;4.10;99.90;;;;;;6275834;22;20007;-88
2022/01/12 10:55:17;;;;;;;56.23;19.37;;;4.20;99.90;;;;;;6231474;22;20004;-88
2022/01/12 10:57:45;;;;;;;53.57;19.97;;;4.20;99.90;;;;;;6249565;22;20011;-88
2022/01/12 11:00:18;;;;;;;55.07;19.83;;;4.20;99.90;;;;;;6277676;22;20011;-88
2022/01/12 11:02:53;;;;;;;59.20;20.93;;;4.20;99.90;;;;;;6250770;22;20018;-88
2022/01/12 11:05:20;;;;;;;53.53;20.50;;;4.20;99.90;;;;;;6276496;22;20057;-88
2022/01/12 11:07:46;;;;;;;52.00;20.23;;;4.20;99.90;;;;;;6251425;22;20019;-88
2022/01/12 11:10:12;;;;;;;51.97;20.77;;;4.20;99.90;;;;;;6277886;22;20008;-88
2022/01/12 11:12:40;;;;;;;56.47;21.47;;;4.10;99.90;;;;;;6252237;22;20003;-89
2022/01/12 11:15:08;;;;;;;55.07;22.00;;;4.20;99.90;;;;;;6277160;22;20012;-89
2022/01/12 11:17:34;;;;;;;59.97;21.27;;;4.20;99.90;;;;;;6274597;22;20651;-88
2022/01/12 11:20:22;;;;;;;55.20;20.83;;;4.20;99.90;;;;;;6248817;22;20110;-89
2022/01/12 11:23:09;;;;;;;54.53;20.30;;;4.20;99.90;;;;;;6248730;22;20382;-88
2022/01/12 11:25:38;;;;;;;57.47;22.73;;;4.30;99.90;;;;;;6276089;22;20008;-88
2022/01/12 11:28:17;;;;;;;63.10;25.50;;;4.20;99.90;;;;;;6248834;22;20474;-88
2022/01/12 11:30:52;;;;;;;63.53;25.42;;;4.30;99.90;;;;;;6248899;22;20043;-88
2022/01/12 11:33:33;;;;;;;71.33;25.97;;;4.30;99.90;;;;;;6274333;22;20015;-88
2022/01/12 11:36:16;;;;;;;64.63;25.13;;;4.30;99.90;;;;;;6274342;22;20027;-88
2022/01/12 11:38:47;;;;;;;65.67;26.63;;;4.30;99.90;;;;;;6273635;22;20003;-88
2022/01/12 11:41:26;;;;;;;62.07;24.83;;;4.30;99.90;;;;;;6248887;22;20007;-88
2022/01/12 11:44:01;;;;;;;67.90;25.80;;;4.30;99.90;;;;;;6274312;22;20058;-86
2022/01/12 11:46:39;;;;;;;71.13;26.60;;;4.20;99.90;;;;;;6248952;22;20272;-86
2022/01/12 11:49:05;;;;;;;75.00;28.67;;;4.30;99.90;;;;;;6248258;22;20442;-86
2022/01/12 11:51:40;;;;;;;72.97;27.40;;;4.30;99.90;;;;;;6274050;22;20249;-87
2022/01/12 11:54:15;;;;;;;76.37;28.53;;;4.30;99.90;;;;;;6248503;22;20003;-86
2022/01/12 11:57:13;;;;;;;76.70;28.53;;;4.40;99.90;;;;;;6248629;22;20023;-87
2022/01/12 11:59:57;;;;;;;67.93;25.23;;;4.30;99.90;;;;;;6244794;22;20314;-87
2022/01/12 12:02:40;;;;;;;71.73;27.07;;;4.30;99.90;;;;;;6274359;22;20008;-87
2022/01/12 12:05:34;;;;;;;73.03;27.90;;;4.40;99.90;;;;;;6274212;22;20012;-86
2022/01/12 12:08:04;;;;;;;71.57;29.13;;;4.40;99.90;;;;;;6243931;22;20004;-86
2022/01/12 12:10:38;;;;;;;71.83;27.57;;;4.40;99.90;;;;;;6248519;22;20010;-86
2022/01/12 12:13:06;;;;;;;68.63;27.67;;;4.40;99.90;;;;;;6273585;22;20031;-87
2022/01/12 12:15:32;;;;;;;72.57;29.07;;;4.40;99.90;;;;;;6248325;22;20087;-86
2022/01/12 12:18:03;;;;;;;80.30;29.93;;;4.40;99.90;;;;;;6247835;22;20095;-87
2022/01/12 12:20:32;;;;;;;76.50;28.30;;;4.40;99.90;;;;;;6273938;22;20426;-86
2022/01/12 12:22:58;;;;;;;71.85;28.00;;;4.30;99.90;;;;;;6273947;22;20465;-86
2022/01/12 12:25:26;;;;;;;78.17;29.00;;;4.30;99.90;;;;;;6248474;22;20427;-86
2022/01/12 12:27:57;;;;;;;77.17;30.10;;;4.40;99.90;;;;;;6273462;22;20083;-87
2022/01/12 12:30:25;;;;;;;76.77;29.40;;;4.30;99.90;;;;;;6273897;22;20012;-86
2022/01/12 12:32:55;;;;;;;87.87;32.20;;;4.30;99.90;;;;;;6248118;22;20012;-86
2022/01/12 12:35:28;;;;;;;81.70;29.77;;;4.30;99.90;;;;;;6274295;22;20057;-86
2022/01/12 12:38:08;;;;;;;90.23;32.37;;;4.30;99.90;;;;;;6273179;22;20469;-87
2022/01/12 12:40:41;;;;;;;88.23;32.40;;;4.30;99.90;;;;;;6248524;22;20008;-86
2022/01/12 12:43:17;;;;;;;83.00;31.13;;;4.30;99.90;;;;;;6273827;22;20046;-87
2022/01/12 12:45:54;;;;;;;90.23;33.90;;;4.40;99.90;;;;;;6274092;22;20004;-87
2022/01/12 12:48:32;;;;;;;85.80;32.37;;;4.40;99.90;;;;;;6247751;22;20011;-87
2022/01/12 12:51:03;;;;;;;86.33;32.70;;;4.40;99.90;;;;;;6248026;22;20011;-86
2022/01/12 12:53:37;;;;;;;86.87;31.77;;;4.40;99.90;;;;;;6248122;22;20007;-87
2022/01/12 12:56:06;;;;;;;88.03;32.53;;;4.40;99.90;;;;;;6248136;22;20007;-86
2022/01/12 12:58:32;;;;;;;;;;;4.40;99.90;;;;;;6273503;22;20062;-87
2022/01/12 13:01:10;;;;;;;93.57;31.97;;;4.40;99.90;;;;;;6273630;22;19907;-86
2022/01/12 13:03:39;;;;;;;91.00;33.93;;;4.40;99.90;;;;;;6273606;22;20004;-87
2022/01/12 13:06:05;;;;;;;94.57;32.85;;;4.40;99.90;;;;;;6273747;22;20004;-89
2022/01/12 13:08:31;;;;;;;96.80;34.77;;;4.40;99.90;;;;;;6273087;22;20034;-89
2022/01/12 13:11:08;;;;;;;99.37;34.60;;;4.40;99.90;;;;;;6274875;22;20011;-89
2022/01/12 13:13:34;;;;;;;99.30;34.97;;;4.40;99.90;;;;;;6247977;22;20042;-88
2022/01/12 13:15:59;;;;;;;99.60;36.93;;;4.40;99.90;;;;;;6248115;22;20342;-88
2022/01/12 13:18:26;;;;;;;98.97;36.10;;;4.40;99.90;;;;;;6273063;22;20018;-89
2022/01/12 13:21:12;;;;;;;98.53;35.50;;;4.40;99.90;;;;;;6274262;22;20010;-87
2022/01/12 13:23:42;;;;;;;103.73;36.70;;;4.40;99.90;;;;;;6275696;22;20090;-87
2022/01/12 13:26:15;;;;;;;102.73;36.07;;;4.50;99.90;;;;;;6249901;22;20008;-89
2022/01/12 13:28:43;;;;;;;95.20;35.60;;;4.50;99.90;;;;;;6274854;22;20015;-88
2022/01/12 13:31:12;;;;;;;103.27;35.10;;;4.50;99.90;;;;;;6275261;22;20423;-88
2022/01/12 13:33:48;;;;;;;104.55;35.58;;;4.50;99.90;;;;;;6249836;22;20323;-88
2022/01/12 13:36:24;;;;;;;96.97;34.40;;;4.50;99.90;;;;;;6249852;22;20096;-89
2022/01/12 13:39:08;;;;;;;103.57;34.80;;;4.50;99.90;;;;;;6274690;22;20403;-88
2022/01/12 13:41:38;;;;;;;98.77;34.63;;;4.50;99.90;;;;;;6249620;22;20008;-88
2022/01/12 13:44:11;;;;;;;97.43;35.43;;;4.40;99.90;;;;;;6249863;22;20012;-87
2022/01/12 13:46:39;;;;;;;99.97;36.90;;;4.50;99.90;;;;;;6275649;22;20330;-88
2022/01/12 13:51:52;;;;;;;100.17;34.73;;;4.50;99.90;;;;;;6274939;22;20008;-88
2022/01/12 13:54:18;;;;;;;93.83;32.23;;;4.40;99.90;;;;;;6249746;22;20438;-88
2022/01/12 13:56:49;;;;;;;88.13;33.20;;;4.40;99.90;;;;;;6275194;22;20023;-88
2022/01/12 13:59:17;;;;;;;100.20;34.43;;;4.40;99.90;;;;;;6274650;22;20011;-89
2022/01/12 14:01:44;;;;;;;105.57;35.03;;;4.40;99.90;;;;;;6275061;22;20004;-88
2022/01/12 14:04:14;;;;;;;92.60;33.13;;;4.50;99.90;;;;;;6275154;22;20003;-88
2022/01/12 14:06:46;;;;;;;90.00;32.03;;;4.40;99.90;;;;;;6275392;22;20315;-88
2022/01/12 14:09:36;;;;;;;103.17;37.80;;;4.50;99.90;;;;;;6249179;22;20380;-88
2022/01/12 14:12:14;;;;;;;110.57;34.57;;;4.40;99.90;;;;;;6249570;22;20342;-89
2022/01/12 14:14:54;;;;;;;99.87;34.60;;;4.40;99.90;;;;;;6249413;22;20082;-88
2022/01/12 14:17:28;;;;;;;109.60;35.20;;;4.40;99.90;;;;;;6249518;22;20000;-88
2022/01/12 14:20:26;;;;;;;103.00;33.93;;;4.40;99.90;;;;;;6276461;22;20004;-88
2022/01/12 14:22:54;;;;;;;105.80;35.88;;;4.40;99.90;;;;;;6264427;22;20015;-89
2022/01/12 14:25:43;;;;;;;105.80;34.57;;;4.40;99.90;;;;;;6251688;22;20003;-89
2022/01/12 14:28:14;;;;;;;106.40;33.93;;;4.40;99.90;;;;;;6225695;22;20086;-89
2022/01/12 14:30:42;;;;;;;102.70;33.73;;;4.40;99.90;;;;;;6277553;22;20423;-89
2022/01/12 14:33:08;;;;;;;93.60;31.70;;;4.40;99.90;;;;;;6249582;22;20008;-89
2022/01/12 14:35:34;;;;;;;98.87;34.07;;;4.40;99.90;;;;;;6274735;22;20007;-89
2022/01/12 14:38:00;;;;;;;114.50;34.57;;;4.40;99.90;;;;;;6274313;22;20023;-88
2022/01/12 14:40:27;;;;;;;94.00;34.07;;;4.40;99.90;;;;;;6274611;22;20003;-89
2022/01/12 14:42:58;;;;;;;107.50;34.40;;;4.50;99.90;;;;;;6249051;22;20004;-89
2022/01/12 14:45:30;;;;;;;101.50;34.30;;;4.50;99.90;;;;;;6274611;22;20008;-89
2022/01/12 14:48:01;;;;;;;90.83;33.30;;;4.50;99.90;;;;;;6248608;22;20058;-90
2022/01/12 14:50:30;;;;;;;85.57;30.37;;;4.50;99.90;;;;;;6249130;22;20065;-89
2022/01/12 14:52:57;;;;;;;91.40;34.47;;;4.50;99.90;;;;;;6249034;22;20004;-89
2022/01/12 14:55:24;;;;;;;94.73;33.17;;;4.60;99.90;;;;;;6249074;22;20043;-89
2022/01/12 14:57:51;;;;;;;94.70;33.40;;;4.60;99.90;;;;;;6271609;22;20338;-87
2022/01/12 15:00:24;;;;;;;102.27;34.53;;;4.60;99.90;;;;;;6275732;22;20043;-88
2022/01/12 15:03:00;;;;;;;94.90;32.43;;;4.60;99.90;;;;;;6274536;22;20081;-89
2022/01/12 15:05:27;;;;;;;97.27;33.60;;;4.50;99.90;;;;;;6274437;22;20070;-88
2022/01/12 15:07:54;;;;;;;99.70;34.40;;;4.50;99.90;;;;;;6248311;22;20031;-89
2022/01/12 15:10:20;;;;;;;98.53;34.40;;;4.60;99.90;;;;;;6274298;22;20104;-89
2022/01/12 15:12:51;;;;;;;104.00;37.67;;;4.50;99.90;;;;;;6248702;22;20012;-89
2022/01/12 15:15:17;;;;;;;95.83;35.60;;;4.50;99.90;;;;;;6274497;22;20000;-89
2022/01/12 15:17:43;;;;;;;101.93;33.83;;;4.50;99.90;;;;;;6248301;22;20012;-89
2022/01/12 15:20:12;;;;;;;95.07;34.60;;;4.50;99.90;;;;;;6248743;22;20450;-90
2022/01/12 15:22:40;;;;;;;96.20;34.55;;;4.50;99.90;;;;;;6248570;22;20012;-89
2022/01/12 15:25:07;;;;;;;103.07;34.60;;;4.50;99.90;;;;;;6248678;22;20341;-88
2022/01/12 15:27:33;;;;;;;99.53;35.03;;;4.50;99.90;;;;;;6273935;22;20346;-89
2022/01/12 15:29:59;;;;;;;92.50;35.37;;;4.50;99.90;;;;;;6274103;22;20442;-89
2022/01/12 15:32:28;;;;;;;90.83;34.30;;;4.50;99.90;;;;;;6248594;22;20350;-88
2022/01/12 15:34:55;;;;;;;;;;;4.50;99.90;;;;;;6274683;22;20011;-89
2022/01/12 15:37:22;;;;;;;89.43;30.20;;;4.50;99.90;;;;;;6274179;22;20278;-89
2022/01/12 15:39:48;;;;;;;86.50;31.97;;;4.50;99.90;;;;;;6273699;22;20461;-89
2022/01/12 15:42:14;;;;;;;88.07;34.00;;;4.50;99.90;;;;;;6248452;22;20007;-89
2022/01/12 15:44:40;;;;;;;85.07;32.90;;;4.50;99.90;;;;;;6250519;22;20049;-88
2022/01/12 15:47:06;;;;;;;76.43;30.50;;;4.50;99.90;;;;;;6248838;22;20584;-88
2022/01/12 15:49:32;;;;;;;65.03;27.73;;;4.50;99.90;;;;;;6248324;22;20004;-88
2022/01/12 15:51:59;;;;;;;65.43;28.27;;;4.50;99.90;;;;;;6248593;22;20011;-88
2022/01/12 15:54:25;;;;;;;58.40;26.67;;;4.50;99.90;;;;;;6274359;22;20004;-88
2022/01/12 15:56:50;;;;;;;57.67;24.57;;;4.60;99.90;;;;;;6248556;22;20006;-89
2022/01/12 15:59:16;;;;;;;60.33;24.80;;;4.50;99.90;;;;;;6273842;22;20015;-88
2022/01/12 16:01:45;;;;;;;54.67;24.50;;;4.60;99.90;;;;;;6248916;22;20266;-88
2022/01/12 16:04:11;;;;;;;50.78;23.90;;;4.50;99.90;;;;;;6248470;22;20043;-89
2022/01/12 16:06:37;;;;;;;55.33;24.03;;;4.50;99.90;;;;;;6248398;22;20007;-88
2022/01/12 16:09:04;;;;;;;51.50;23.73;;;4.60;99.90;;;;;;6248381;22;20438;-89
2022/01/12 16:11:32;;;;;;;49.47;22.33;;;4.60;99.90;;;;;;6248168;22;20469;-89
2022/01/12 16:13:58;;;;;;;46.73;22.57;;;4.60;99.90;;;;;;6273913;22;20061;-88
2022/01/12 16:16:25;;;;;;;44.80;21.90;;;4.60;99.90;;;;;;6248486;22;20011;-88
2022/01/12 16:18:52;;;;;;;44.57;20.60;;;4.70;99.90;;;;;;6248295;22;20022;-89
2022/01/12 16:21:20;;;;;;;43.70;20.00;;;4.60;99.90;;;;;;6247919;22;19999;-89
2022/01/12 16:23:46;;;;;;;47.00;20.20;;;4.60;99.90;;;;;;6248252;22;20007;-90
2022/01/12 16:26:12;;;;;;;40.50;20.53;;;4.60;99.90;;;;;;6273877;22;20054;-89
2022/01/12 16:28:38;;;;;;;39.60;20.10;;;4.60;99.90;;;;;;6247529;22;20008;-89
2022/01/12 16:31:15;;;;;;;40.77;20.53;;;4.60;99.90;;;;;;6247950;22;20018;-89
2022/01/12 16:33:41;;;;;;;42.00;20.43;;;4.60;99.90;;;;;;6248140;22;20385;-89
2022/01/12 16:36:07;;;;;;;43.87;21.03;;;4.50;99.90;;;;;;6248064;22;20061;-89
2022/01/12 16:38:34;;;;;;;47.53;24.50;;;4.50;99.90;;;;;;6247531;22;20054;-89
2022/01/12 16:41:02;;;;;;;46.90;23.73;;;4.60;99.90;;;;;;6247914;22;20007;-89
2022/01/12 16:43:28;;;;;;;43.37;22.87;;;4.50;99.90;;;;;;6274023;22;20061;-90
2022/01/12 16:45:54;;;;;;;48.90;23.87;;;4.60;99.90;;;;;;6273631;22;20117;-89
2022/01/12 16:48:20;;;;;;;53.47;25.63;;;4.60;99.90;;;;;;6247344;22;20019;-89
2022/01/12 16:50:46;;;;;;;50.93;26.07;;;4.60;99.90;;;;;;6247964;22;20335;-89
2022/01/12 16:53:13;;;;;;;49.00;24.90;;;4.50;99.90;;;;;;6248071;22;20008;-89
2022/01/12 16:55:38;;;;;;;48.80;24.50;;;4.50;99.90;;;;;;6249380;22;20035;-89
2022/01/12 16:58:06;;;;;;;52.67;25.87;;;4.50;99.90;;;;;;6275057;22;20015;-89
2022/01/12 17:00:33;;;;;;;48.13;23.37;;;4.50;99.90;;;;;;6250038;22;20034;-89
2022/01/12 17:02:59;;;;;;;50.07;25.23;;;4.50;99.90;;;;;;6250074;22;20007;-89
2022/01/12 17:05:26;;;;;;;54.40;27.20;;;4.50;99.90;;;;;;6250149;22;20464;-89
2022/01/12 17:07:52;;;;;;;51.63;24.97;;;4.50;99.90;;;;;;6274871;22;20008;-89
2022/01/12 17:10:19;;;;;;;48.70;24.83;;;4.50;99.90;;;;;;6275463;22;20095;-89
2022/01/12 17:12:45;;;;;;;51.57;24.70;;;4.50;99.90;;;;;;6250645;22;20011;-89
2022/01/12 17:15:35;;;;;;;55.20;25.57;;;4.50;99.90;;;;;;6250740;22;20385;-89